KLRD/LRD METAR and TAF weather

Enter ICAO airport designator
Station Type Date Time Source
KLRD METAR 2019/10/21 01:56 UTC NOAA

KLRD 210156Z 15017KT 10SM CLR 29/23 A2969 RMK AO2 SLP049 T02940233


Station Type Date Time Source
KLRD Decoded METAR 2019/10/21 01:56 UTC NOAA

Laredo, Laredo International Airport, TX, United States (KLRD) 27-32-37N 099-27-41W
Oct 20, 2019 - 09:56 PM EDT / 2019.10.21 0156 UTC
Wind: from the SSE (150 degrees) at 20 MPH (17 KT):0
Visibility: 10 mile(s):0
Sky conditions: clear
Temperature: 84.9 F (29.4 C)
Dew Point: 73.9 F (23.3 C)
Relative Humidity: 69%
Pressure (altimeter): 29.69 in. Hg (1005 hPa)
ob: KLRD 210156Z 15017KT 10SM CLR 29/23 A2969 RMK AO2 SLP049 T02940233
cycle: 2

Station Type Date Time Source
KLRD TAF 2019/10/20 21:15 UTC NOAA

TAF
AMD KLRD 202112Z 2021/2118 17015G22KT P6SM SCT050 BKN120
FM210600 18008KT P6SM BKN012
FM211600 30011KT P6SM BKN020

Example: see airport list